Lungerville, Pennsylvania
Current Conditions -  °F | °C
As of 4:54 AM on Tuesday 27 Jan 2015 (Local Time) from KIPT Reporting Station
Light Snow Light Snow  
Wind Chill: 13°   Ceiling: 4000
Heat Index: 22°   Visibility: 9mi
Dew Point: 13°   Wind: 8mph
Humidity: 68%   Direction: 260°W
Pressure: 29.81"   Gusts: NA
Location:  41.2442°N, 76.522°W
Report Text: KIPT 270954Z AUTO 26007KT 9SM -SN BKN040 OVC055 M06/M11 A2981 RMK AO2 SLP101 P0000 T10561106
Loading
Personal Weather Stations






























Interactive Weather Map New forecast layout! Learn more

10-Day Weather Forecast

Advertisements
Track Severe Weather on mobile